sensor_id;sensor_type;location;lat;lon;timestamp;temperature;humidity
20057;DHT22;10189;49.546;7.906;2022-12-10T00:01:14;-1.20;91.70
20057;DHT22;10189;49.546;7.906;2022-12-10T00:03:42;-1.20;91.10
20057;DHT22;10189;49.546;7.906;2022-12-10T00:06:16;-1.20;91.70
20057;DHT22;10189;49.546;7.906;2022-12-10T00:08:44;-1.20;91.70
20057;DHT22;10189;49.546;7.906;2022-12-10T00:11:12;-1.20;91.60
20057;DHT22;10189;49.546;7.906;2022-12-10T00:13:40;-1.20;91.30
20057;DHT22;10189;49.546;7.906;2022-12-10T00:16:09;-1.20;91.60
20057;DHT22;10189;49.546;7.906;2022-12-10T00:18:37;-1.20;91.80
20057;DHT22;10189;49.546;7.906;2022-12-10T00:21:11;-1.20;91.80
20057;DHT22;10189;49.546;7.906;2022-12-10T00:23:40;-1.20;91.60
20057;DHT22;10189;49.546;7.906;2022-12-10T00:26:08;-1.30;91.60
20057;DHT22;10189;49.546;7.906;2022-12-10T00:28:36;-1.30;91.70
20057;DHT22;10189;49.546;7.906;2022-12-10T00:31:04;-1.20;92.00
20057;DHT22;10189;49.546;7.906;2022-12-10T00:33:32;-1.20;91.30
20057;DHT22;10189;49.546;7.906;2022-12-10T00:36:11;-1.20;91.00
20057;DHT22;10189;49.546;7.906;2022-12-10T00:38:44;-1.20;91.10
20057;DHT22;10189;49.546;7.906;2022-12-10T00:41:12;-1.30;91.40
20057;DHT22;10189;49.546;7.906;2022-12-10T00:43:39;-1.30;91.40
20057;DHT22;10189;49.546;7.906;2022-12-10T00:46:05;-1.40;91.90
20057;DHT22;10189;49.546;7.906;2022-12-10T00:48:32;-1.40;92.30
20057;DHT22;10189;49.546;7.906;2022-12-10T00:51:02;-1.40;92.40
20057;DHT22;10189;49.546;7.906;2022-12-10T00:53:30;-1.30;92.00
20057;DHT22;10189;49.546;7.906;2022-12-10T00:55:57;-1.30;91.90
20057;DHT22;10189;49.546;7.906;2022-12-10T00:58:27;-1.30;92.10
20057;DHT22;10189;49.546;7.906;2022-12-10T01:00:54;-1.40;92.30
20057;DHT22;10189;49.546;7.906;2022-12-10T01:03:31;-1.30;92.00
20057;DHT22;10189;49.546;7.906;2022-12-10T01:05:56;-1.40;92.30
20057;DHT22;10189;49.546;7.906;2022-12-10T01:08:22;-1.40;92.60
20057;DHT22;10189;49.546;7.906;2022-12-10T01:10:53;-1.30;92.40
20057;DHT22;10189;49.546;7.906;2022-12-10T01:13:18;-1.30;91.80
20057;DHT22;10189;49.546;7.906;2022-12-10T01:15:44;-1.40;92.10
20057;DHT22;10189;49.546;7.906;2022-12-10T01:18:10;-1.30;91.80
20057;DHT22;10189;49.546;7.906;2022-12-10T01:20:36;-1.20;91.70
20057;DHT22;10189;49.546;7.906;2022-12-10T01:23:02;-1.30;91.50
20057;DHT22;10189;49.546;7.906;2022-12-10T01:25:30;-1.30;92.00
20057;DHT22;10189;49.546;7.906;2022-12-10T01:27:56;-1.30;91.80
20057;DHT22;10189;49.546;7.906;2022-12-10T01:30:23;-1.30;91.80
20057;DHT22;10189;49.546;7.906;2022-12-10T01:32:49;-1.40;92.30
20057;DHT22;10189;49.546;7.906;2022-12-10T01:35:15;-1.30;91.90
20057;DHT22;10189;49.546;7.906;2022-12-10T01:37:41;-1.30;91.70
20057;DHT22;10189;49.546;7.906;2022-12-10T01:40:07;-1.30;91.80
20057;DHT22;10189;49.546;7.906;2022-12-10T01:42:34;-1.30;92.00
20057;DHT22;10189;49.546;7.906;2022-12-10T01:45:04;-1.40;92.20
20057;DHT22;10189;49.546;7.906;2022-12-10T01:47:33;-1.30;92.10
20057;DHT22;10189;49.546;7.906;2022-12-10T01:49:59;-1.30;92.10
20057;DHT22;10189;49.546;7.906;2022-12-10T01:52:26;-1.40;91.70
20057;DHT22;10189;49.546;7.906;2022-12-10T01:54:55;-1.40;92.20
20057;DHT22;10189;49.546;7.906;2022-12-10T01:57:25;-1.40;92.20
20057;DHT22;10189;49.546;7.906;2022-12-10T01:59:56;-1.40;92.00
20057;DHT22;10189;49.546;7.906;2022-12-10T02:05:44;-1.30;91.70
20057;DHT22;10189;49.546;7.906;2022-12-10T02:08:26;-1.30;91.50
20057;DHT22;10189;49.546;7.906;2022-12-10T02:11:16;-1.30;91.60
20057;DHT22;10189;49.546;7.906;2022-12-10T02:16:38;-1.30;91.50
20057;DHT22;10189;49.546;7.906;2022-12-10T02:19:41;-1.30;91.00
20057;DHT22;10189;49.546;7.906;2022-12-10T02:22:19;-1.40;91.60
20057;DHT22;10189;49.546;7.906;2022-12-10T02:24:50;-1.30;91.90
20057;DHT22;10189;49.546;7.906;2022-12-10T02:27:27;-1.30;91.60
20057;DHT22;10189;49.546;7.906;2022-12-10T02:30:00;-1.30;91.40
20057;DHT22;10189;49.546;7.906;2022-12-10T02:32:38;-1.30;91.00
20057;DHT22;10189;49.546;7.906;2022-12-10T02:35:14;-1.30;91.00
20057;DHT22;10189;49.546;7.906;2022-12-10T02:38:15;-1.30;90.90
20057;DHT22;10189;49.546;7.906;2022-12-10T02:41:08;-1.30;91.10
20057;DHT22;10189;49.546;7.906;2022-12-10T02:43:52;-1.30;90.60
20057;DHT22;10189;49.546;7.906;2022-12-10T02:46:21;-1.30;90.70
20057;DHT22;10189;49.546;7.906;2022-12-10T02:48:51;-1.30;90.60
20057;DHT22;10189;49.546;7.906;2022-12-10T02:51:18;-1.30;90.70
20057;DHT22;10189;49.546;7.906;2022-12-10T02:53:45;-1.30;90.60
20057;DHT22;10189;49.546;7.906;2022-12-10T02:56:26;-1.40;90.80
20057;DHT22;10189;49.546;7.906;2022-12-10T02:59:02;-1.30;90.60
20057;DHT22;10189;49.546;7.906;2022-12-10T03:04:37;-1.20;90.40
20057;DHT22;10189;49.546;7.906;2022-12-10T03:07:18;-1.30;90.50
20057;DHT22;10189;49.546;7.906;2022-12-10T03:10:03;-1.30;90.30
20057;DHT22;10189;49.546;7.906;2022-12-10T03:12:42;-1.30;90.40
20057;DHT22;10189;49.546;7.906;2022-12-10T03:15:14;-1.30;90.30
20057;DHT22;10189;49.546;7.906;2022-12-10T03:17:43;-1.40;90.70
20057;DHT22;10189;49.546;7.906;2022-12-10T03:20:12;-1.40;90.30
20057;DHT22;10189;49.546;7.906;2022-12-10T03:22:43;-1.40;91.00
20057;DHT22;10189;49.546;7.906;2022-12-10T03:25:16;-1.50;91.20
20057;DHT22;10189;49.546;7.906;2022-12-10T03:27:45;-1.40;90.90
20057;DHT22;10189;49.546;7.906;2022-12-10T03:30:15;-1.40;90.80
20057;DHT22;10189;49.546;7.906;2022-12-10T03:32:41;-1.40;90.70
20057;DHT22;10189;49.546;7.906;2022-12-10T03:35:10;-1.40;90.20
20057;DHT22;10189;49.546;7.906;2022-12-10T03:37:37;-1.40;90.10
20057;DHT22;10189;49.546;7.906;2022-12-10T03:40:05;-1.40;89.90
20057;DHT22;10189;49.546;7.906;2022-12-10T03:42:35;-1.30;89.40
20057;DHT22;10189;49.546;7.906;2022-12-10T03:45:03;-1.40;89.80
20057;DHT22;10189;49.546;7.906;2022-12-10T03:47:29;-1.40;90.00
20057;DHT22;10189;49.546;7.906;2022-12-10T03:49:55;-1.40;90.10
20057;DHT22;10189;49.546;7.906;2022-12-10T03:52:21;-1.40;89.70
20057;DHT22;10189;49.546;7.906;2022-12-10T03:54:47;-1.40;90.00
20057;DHT22;10189;49.546;7.906;2022-12-10T03:57:13;-1.40;89.50
20057;DHT22;10189;49.546;7.906;2022-12-10T03:59:39;-1.40;89.70
20057;DHT22;10189;49.546;7.906;2022-12-10T04:02:05;-1.50;90.00
20057;DHT22;10189;49.546;7.906;2022-12-10T04:04:31;-1.40;89.70
20057;DHT22;10189;49.546;7.906;2022-12-10T04:06:57;-1.50;90.30
20057;DHT22;10189;49.546;7.906;2022-12-10T04:09:23;-1.60;90.30
20057;DHT22;10189;49.546;7.906;2022-12-10T04:11:49;-1.60;90.60
20057;DHT22;10189;49.546;7.906;2022-12-10T04:14:15;-1.60;90.80
20057;DHT22;10189;49.546;7.906;2022-12-10T04:17:00;-1.60;90.70
20057;DHT22;10189;49.546;7.906;2022-12-10T04:19:26;-1.60;90.50
20057;DHT22;10189;49.546;7.906;2022-12-10T04:21:51;-1.60;90.10
20057;DHT22;10189;49.546;7.906;2022-12-10T04:24:36;-1.60;90.00
20057;DHT22;10189;49.546;7.906;2022-12-10T04:27:36;-1.70;90.20
20057;DHT22;10189;49.546;7.906;2022-12-10T04:30:06;-1.70;90.20
20057;DHT22;10189;49.546;7.906;2022-12-10T04:32:34;-1.70;90.60
20057;DHT22;10189;49.546;7.906;2022-12-10T04:35:00;-1.70;91.00
20057;DHT22;10189;49.546;7.906;2022-12-10T04:37:27;-1.70;90.80
20057;DHT22;10189;49.546;7.906;2022-12-10T04:39:53;-1.70;90.90
20057;DHT22;10189;49.546;7.906;2022-12-10T04:42:21;-1.70;91.20
20057;DHT22;10189;49.546;7.906;2022-12-10T04:44:48;-1.70;91.30
20057;DHT22;10189;49.546;7.906;2022-12-10T04:47:14;-1.70;91.60
20057;DHT22;10189;49.546;7.906;2022-12-10T04:49:40;-1.70;91.60
20057;DHT22;10189;49.546;7.906;2022-12-10T04:52:07;-1.80;91.90
20057;DHT22;10189;49.546;7.906;2022-12-10T04:54:35;-1.80;91.60
20057;DHT22;10189;49.546;7.906;2022-12-10T04:57:01;-1.80;91.90
20057;DHT22;10189;49.546;7.906;2022-12-10T04:59:27;-1.80;92.10
20057;DHT22;10189;49.546;7.906;2022-12-10T05:01:55;-1.80;91.90
20057;DHT22;10189;49.546;7.906;2022-12-10T05:04:20;-1.80;92.20
20057;DHT22;10189;49.546;7.906;2022-12-10T05:06:48;-1.90;92.30
20057;DHT22;10189;49.546;7.906;2022-12-10T05:09:15;-1.90;92.50
20057;DHT22;10189;49.546;7.906;2022-12-10T05:11:42;-1.80;92.30
20057;DHT22;10189;49.546;7.906;2022-12-10T05:14:14;-1.80;91.80
20057;DHT22;10189;49.546;7.906;2022-12-10T05:16:41;-1.90;92.20
20057;DHT22;10189;49.546;7.906;2022-12-10T05:19:08;-1.80;92.00
20057;DHT22;10189;49.546;7.906;2022-12-10T05:21:35;-1.80;91.80
20057;DHT22;10189;49.546;7.906;2022-12-10T05:24:19;-1.80;91.80
20057;DHT22;10189;49.546;7.906;2022-12-10T05:26:45;-1.80;91.70
20057;DHT22;10189;49.546;7.906;2022-12-10T05:29:13;-1.70;90.60
20057;DHT22;10189;49.546;7.906;2022-12-10T05:31:38;-1.70;90.90
20057;DHT22;10189;49.546;7.906;2022-12-10T05:34:04;-1.70;90.30
20057;DHT22;10189;49.546;7.906;2022-12-10T05:36:31;-1.80;90.90
20057;DHT22;10189;49.546;7.906;2022-12-10T05:38:58;-1.80;91.30
20057;DHT22;10189;49.546;7.906;2022-12-10T05:41:29;-1.80;92.00
20057;DHT22;10189;49.546;7.906;2022-12-10T05:43:58;-1.70;92.40
20057;DHT22;10189;49.546;7.906;2022-12-10T05:46:28;-1.60;92.30
20057;DHT22;10189;49.546;7.906;2022-12-10T05:48:56;-1.60;91.60
20057;DHT22;10189;49.546;7.906;2022-12-10T05:51:24;-1.60;91.50
20057;DHT22;10189;49.546;7.906;2022-12-10T05:53:53;-1.60;91.20
20057;DHT22;10189;49.546;7.906;2022-12-10T05:56:21;-1.60;91.40
20057;DHT22;10189;49.546;7.906;2022-12-10T05:58:50;-1.60;91.60
20057;DHT22;10189;49.546;7.906;2022-12-10T06:01:23;-1.70;91.60
20057;DHT22;10189;49.546;7.906;2022-12-10T06:03:52;-1.70;91.70
20057;DHT22;10189;49.546;7.906;2022-12-10T06:06:22;-1.90;92.50
20057;DHT22;10189;49.546;7.906;2022-12-10T06:08:52;-1.80;92.30
20057;DHT22;10189;49.546;7.906;2022-12-10T06:11:19;-1.70;92.20
20057;DHT22;10189;49.546;7.906;2022-12-10T06:13:45;-1.80;91.70
20057;DHT22;10189;49.546;7.906;2022-12-10T06:16:12;-1.80;92.10
20057;DHT22;10189;49.546;7.906;2022-12-10T06:18:40;-1.90;92.20
20057;DHT22;10189;49.546;7.906;2022-12-10T06:21:08;-1.80;92.50
20057;DHT22;10189;49.546;7.906;2022-12-10T06:23:37;-1.90;92.50
20057;DHT22;10189;49.546;7.906;2022-12-10T06:26:08;-1.90;92.30
20057;DHT22;10189;49.546;7.906;2022-12-10T06:28:37;-2.00;93.00
20057;DHT22;10189;49.546;7.906;2022-12-10T06:31:04;-1.90;93.30
20057;DHT22;10189;49.546;7.906;2022-12-10T06:33:31;-1.90;93.20
20057;DHT22;10189;49.546;7.906;2022-12-10T06:35:57;-2.00;93.20
20057;DHT22;10189;49.546;7.906;2022-12-10T06:38:24;-2.00;93.40
20057;DHT22;10189;49.546;7.906;2022-12-10T06:40:50;-2.00;93.50
20057;DHT22;10189;49.546;7.906;2022-12-10T06:43:18;-1.80;92.80
20057;DHT22;10189;49.546;7.906;2022-12-10T06:45:44;-1.90;92.30
20057;DHT22;10189;49.546;7.906;2022-12-10T06:48:12;-1.80;92.00
20057;DHT22;10189;49.546;7.906;2022-12-10T06:50:37;-1.90;92.20
20057;DHT22;10189;49.546;7.906;2022-12-10T06:53:03;-1.90;92.60
20057;DHT22;10189;49.546;7.906;2022-12-10T06:55:29;-1.90;92.60
20057;DHT22;10189;49.546;7.906;2022-12-10T06:57:56;-1.90;92.90
20057;DHT22;10189;49.546;7.906;2022-12-10T07:00:22;-1.90;93.50
20057;DHT22;10189;49.546;7.906;2022-12-10T07:02:49;-1.90;93.70
20057;DHT22;10189;49.546;7.906;2022-12-10T07:05:15;-1.80;93.20
20057;DHT22;10189;49.546;7.906;2022-12-10T07:07:42;-1.80;92.90
20057;DHT22;10189;49.546;7.906;2022-12-10T07:10:08;-1.80;92.30
20057;DHT22;10189;49.546;7.906;2022-12-10T07:12:35;-1.90;92.80
20057;DHT22;10189;49.546;7.906;2022-12-10T07:15:01;-1.90;92.80
20057;DHT22;10189;49.546;7.906;2022-12-10T07:17:27;-1.90;92.60
20057;DHT22;10189;49.546;7.906;2022-12-10T07:19:53;-1.90;92.80
20057;DHT22;10189;49.546;7.906;2022-12-10T07:22:19;-2.00;92.60
20057;DHT22;10189;49.546;7.906;2022-12-10T07:24:47;-2.00;92.60
20057;DHT22;10189;49.546;7.906;2022-12-10T07:27:13;-1.90;92.50
20057;DHT22;10189;49.546;7.906;2022-12-10T07:29:40;-1.80;92.10
20057;DHT22;10189;49.546;7.906;2022-12-10T07:32:06;-1.90;91.90
20057;DHT22;10189;49.546;7.906;2022-12-10T07:34:32;-1.80;91.50
20057;DHT22;10189;49.546;7.906;2022-12-10T07:36:58;-1.90;91.50
20057;DHT22;10189;49.546;7.906;2022-12-10T07:39:24;-2.00;91.70
20057;DHT22;10189;49.546;7.906;2022-12-10T07:41:51;-2.10;92.00
20057;DHT22;10189;49.546;7.906;2022-12-10T07:44:19;-2.00;92.30
20057;DHT22;10189;49.546;7.906;2022-12-10T07:46:48;-2.00;92.30
20057;DHT22;10189;49.546;7.906;2022-12-10T07:49:15;-2.00;92.50
20057;DHT22;10189;49.546;7.906;2022-12-10T07:51:46;-2.00;92.60
20057;DHT22;10189;49.546;7.906;2022-12-10T07:54:14;-2.00;92.40
20057;DHT22;10189;49.546;7.906;2022-12-10T07:56:40;-2.00;92.30
20057;DHT22;10189;49.546;7.906;2022-12-10T07:59:07;-2.00;92.50
20057;DHT22;10189;49.546;7.906;2022-12-10T08:01:33;-2.00;93.00
20057;DHT22;10189;49.546;7.906;2022-12-10T08:03:59;-2.00;93.20
20057;DHT22;10189;49.546;7.906;2022-12-10T08:06:27;-1.90;92.60
20057;DHT22;10189;49.546;7.906;2022-12-10T08:08:53;-1.90;92.60
20057;DHT22;10189;49.546;7.906;2022-12-10T08:11:21;-1.80;92.10
20057;DHT22;10189;49.546;7.906;2022-12-10T08:13:47;-1.90;92.00
20057;DHT22;10189;49.546;7.906;2022-12-10T08:16:20;-1.80;91.60
20057;DHT22;10189;49.546;7.906;2022-12-10T08:18:48;-1.80;91.10
20057;DHT22;10189;49.546;7.906;2022-12-10T08:21:19;-1.80;91.00
20057;DHT22;10189;49.546;7.906;2022-12-10T08:23:47;-1.70;91.10
20057;DHT22;10189;49.546;7.906;2022-12-10T08:26:21;-1.70;90.80
20057;DHT22;10189;49.546;7.906;2022-12-10T08:28:50;-1.70;90.40
20057;DHT22;10189;49.546;7.906;2022-12-10T08:31:18;-1.80;90.60
20057;DHT22;10189;49.546;7.906;2022-12-10T08:33:45;-1.80;90.20
20057;DHT22;10189;49.546;7.906;2022-12-10T08:36:12;-2.00;90.70
20057;DHT22;10189;49.546;7.906;2022-12-10T08:38:40;-2.10;91.20
20057;DHT22;10189;49.546;7.906;2022-12-10T08:41:13;-2.10;92.10
20057;DHT22;10189;49.546;7.906;2022-12-10T08:43:40;-2.10;92.50
20057;DHT22;10189;49.546;7.906;2022-12-10T08:46:07;-2.20;92.60
20057;DHT22;10189;49.546;7.906;2022-12-10T08:48:34;-2.20;92.40
20057;DHT22;10189;49.546;7.906;2022-12-10T08:51:02;-2.10;92.70
20057;DHT22;10189;49.546;7.906;2022-12-10T08:53:30;-2.10;92.60
20057;DHT22;10189;49.546;7.906;2022-12-10T08:55:56;-2.20;92.30
20057;DHT22;10189;49.546;7.906;2022-12-10T08:58:22;-2.30;92.60
20057;DHT22;10189;49.546;7.906;2022-12-10T09:00:48;-2.30;93.20
20057;DHT22;10189;49.546;7.906;2022-12-10T09:03:15;-2.40;93.50
20057;DHT22;10189;49.546;7.906;2022-12-10T09:05:41;-2.30;93.10
20057;DHT22;10189;49.546;7.906;2022-12-10T09:08:08;-2.30;92.60
20057;DHT22;10189;49.546;7.906;2022-12-10T09:10:36;-2.30;92.20
20057;DHT22;10189;49.546;7.906;2022-12-10T09:13:03;-2.30;92.20
20057;DHT22;10189;49.546;7.906;2022-12-10T09:15:29;-2.30;92.30
20057;DHT22;10189;49.546;7.906;2022-12-10T09:17:55;-2.30;92.60
20057;DHT22;10189;49.546;7.906;2022-12-10T09:20:21;-2.20;91.90
20057;DHT22;10189;49.546;7.906;2022-12-10T09:22:47;-2.30;92.10
20057;DHT22;10189;49.546;7.906;2022-12-10T09:25:13;-2.30;92.00
20057;DHT22;10189;49.546;7.906;2022-12-10T09:27:41;-2.20;92.10
20057;DHT22;10189;49.546;7.906;2022-12-10T09:30:08;-2.20;91.70
20057;DHT22;10189;49.546;7.906;2022-12-10T09:32:36;-2.10;91.30
20057;DHT22;10189;49.546;7.906;2022-12-10T09:35:03;-2.10;90.90
20057;DHT22;10189;49.546;7.906;2022-12-10T09:37:29;-2.20;90.60
20057;DHT22;10189;49.546;7.906;2022-12-10T09:39:55;-2.20;91.10
20057;DHT22;10189;49.546;7.906;2022-12-10T09:45:29;-2.20;90.90
20057;DHT22;10189;49.546;7.906;2022-12-10T09:48:33;-2.10;90.70
20057;DHT22;10189;49.546;7.906;2022-12-10T09:51:31;-2.00;89.60
20057;DHT22;10189;49.546;7.906;2022-12-10T09:54:00;-1.80;89.70
20057;DHT22;10189;49.546;7.906;2022-12-10T09:56:33;-1.70;89.80
20057;DHT22;10189;49.546;7.906;2022-12-10T09:59:19;-1.60;88.30
20057;DHT22;10189;49.546;7.906;2022-12-10T10:02:11;-1.70;88.10
20057;DHT22;10189;49.546;7.906;2022-12-10T10:04:50;-1.70;88.10
20057;DHT22;10189;49.546;7.906;2022-12-10T10:07:28;-1.60;87.90
20057;DHT22;10189;49.546;7.906;2022-12-10T10:10:01;-1.50;87.80
20057;DHT22;10189;49.546;7.906;2022-12-10T10:12:47;-1.50;87.00
20057;DHT22;10189;49.546;7.906;2022-12-10T10:15:42;-1.60;87.30
20057;DHT22;10189;49.546;7.906;2022-12-10T10:21:17;-1.40;87.60
20057;DHT22;10189;49.546;7.906;2022-12-10T10:23:47;-1.40;86.60
20057;DHT22;10189;49.546;7.906;2022-12-10T10:26:14;-1.40;86.10
20057;DHT22;10189;49.546;7.906;2022-12-10T10:28:41;-1.40;86.00
20057;DHT22;10189;49.546;7.906;2022-12-10T10:31:18;-1.30;86.30
20057;DHT22;10189;49.546;7.906;2022-12-10T10:33:54;-1.10;85.40
20057;DHT22;10189;49.546;7.906;2022-12-10T10:36:34;-1.00;84.50
20057;DHT22;10189;49.546;7.906;2022-12-10T10:41:47;-1.00;85.10
20057;DHT22;10189;49.546;7.906;2022-12-10T10:44:22;-0.80;83.70
20057;DHT22;10189;49.546;7.906;2022-12-10T10:46:52;-0.90;83.20
20057;DHT22;10189;49.546;7.906;2022-12-10T10:49:25;-0.90;83.70
20057;DHT22;10189;49.546;7.906;2022-12-10T10:51:58;-1.00;85.20
20057;DHT22;10189;49.546;7.906;2022-12-10T10:54:40;-0.90;84.10
20057;DHT22;10189;49.546;7.906;2022-12-10T11:00:22;-0.90;83.90
20057;DHT22;10189;49.546;7.906;2022-12-10T11:02:49;-0.90;84.00
20057;DHT22;10189;49.546;7.906;2022-12-10T11:05:26;-1.10;84.30
20057;DHT22;10189;49.546;7.906;2022-12-10T11:08:04;-1.10;84.00
20057;DHT22;10189;49.546;7.906;2022-12-10T11:10:33;-1.10;84.80
20057;DHT22;10189;49.546;7.906;2022-12-10T11:13:05;-1.00;85.20
20057;DHT22;10189;49.546;7.906;2022-12-10T11:15:38;-0.80;84.80
20057;DHT22;10189;49.546;7.906;2022-12-10T11:18:23;-0.70;83.80
20057;DHT22;10189;49.546;7.906;2022-12-10T11:21:01;-0.60;83.70
20057;DHT22;10189;49.546;7.906;2022-12-10T11:23:49;-0.60;82.90
20057;DHT22;10189;49.546;7.906;2022-12-10T11:29:18;-0.60;82.40
20057;DHT22;10189;49.546;7.906;2022-12-10T11:38:27;-0.70;83.00
20057;DHT22;10189;49.546;7.906;2022-12-10T11:50:28;-0.30;80.70
20057;DHT22;10189;49.546;7.906;2022-12-10T11:53:24;-0.60;81.10
20057;DHT22;10189;49.546;7.906;2022-12-10T11:58:54;-0.70;81.00
20057;DHT22;10189;49.546;7.906;2022-12-10T12:01:59;-0.60;81.00
20057;DHT22;10189;49.546;7.906;2022-12-10T12:14:23;-0.50;81.30
20057;DHT22;10189;49.546;7.906;2022-12-10T12:19:58;-0.30;80.10
20057;DHT22;10189;49.546;7.906;2022-12-10T12:22:32;-0.20;80.30
20057;DHT22;10189;49.546;7.906;2022-12-10T12:25:28;-0.20;79.60
20057;DHT22;10189;49.546;7.906;2022-12-10T12:28:26;0.20;78.90
20057;DHT22;10189;49.546;7.906;2022-12-10T12:31:12;0.20;77.50
20057;DHT22;10189;49.546;7.906;2022-12-10T12:33:51;0.20;77.20
20057;DHT22;10189;49.546;7.906;2022-12-10T12:36:29;0.40;76.70
20057;DHT22;10189;49.546;7.906;2022-12-10T12:39:26;0.40;77.50
20057;DHT22;10189;49.546;7.906;2022-12-10T12:42:21;0.50;77.80
20057;DHT22;10189;49.546;7.906;2022-12-10T12:49:56;0.10;77.00
20057;DHT22;10189;49.546;7.906;2022-12-10T12:52:48;0.10;77.00
20057;DHT22;10189;49.546;7.906;2022-12-10T12:55:24;0.10;76.80
20057;DHT22;10189;49.546;7.906;2022-12-10T13:00:44;0.00;77.40
20057;DHT22;10189;49.546;7.906;2022-12-10T13:03:29;0.00;77.90
20057;DHT22;10189;49.546;7.906;2022-12-10T13:06:14;0.10;77.50
20057;DHT22;10189;49.546;7.906;2022-12-10T13:11:34;0.20;76.10
20057;DHT22;10189;49.546;7.906;2022-12-10T13:24:51;0.20;74.60
20057;DHT22;10189;49.546;7.906;2022-12-10T13:27:33;0.20;74.90
20057;DHT22;10189;49.546;7.906;2022-12-10T13:30:45;0.10;75.00
20057;DHT22;10189;49.546;7.906;2022-12-10T13:33:19;0.10;75.40
20057;DHT22;10189;49.546;7.906;2022-12-10T13:36:04;0.10;76.40
20057;DHT22;10189;49.546;7.906;2022-12-10T13:38:40;-0.10;77.90
20057;DHT22;10189;49.546;7.906;2022-12-10T13:41:19;-0.10;78.00
20057;DHT22;10189;49.546;7.906;2022-12-10T13:44:38;-0.20;79.10
20057;DHT22;10189;49.546;7.906;2022-12-10T13:47:26;-0.40;79.70
20057;DHT22;10189;49.546;7.906;2022-12-10T13:49:59;-0.50;80.10
20057;DHT22;10189;49.546;7.906;2022-12-10T13:52:32;-0.60;81.00
20057;DHT22;10189;49.546;7.906;2022-12-10T14:06:20;-1.20;83.90
20057;DHT22;10189;49.546;7.906;2022-12-10T14:09:03;-1.30;84.50
20057;DHT22;10189;49.546;7.906;2022-12-10T14:11:37;-1.40;84.40
20057;DHT22;10189;49.546;7.906;2022-12-10T14:14:11;-1.50;84.70
20057;DHT22;10189;49.546;7.906;2022-12-10T14:16:42;-1.50;84.70
20057;DHT22;10189;49.546;7.906;2022-12-10T14:19:12;-1.50;84.80
20057;DHT22;10189;49.546;7.906;2022-12-10T14:21:43;-1.60;84.70
20057;DHT22;10189;49.546;7.906;2022-12-10T14:24:36;-1.60;85.10
20057;DHT22;10189;49.546;7.906;2022-12-10T14:29:57;-1.70;85.20
20057;DHT22;10189;49.546;7.906;2022-12-10T14:32:31;-1.70;85.30
20057;DHT22;10189;49.546;7.906;2022-12-10T14:35:01;-1.80;85.60
20057;DHT22;10189;49.546;7.906;2022-12-10T14:37:33;-1.80;85.90
20057;DHT22;10189;49.546;7.906;2022-12-10T14:40:04;-1.90;85.80
20057;DHT22;10189;49.546;7.906;2022-12-10T14:42:32;-1.90;86.00
20057;DHT22;10189;49.546;7.906;2022-12-10T14:45:02;-2.00;86.00
20057;DHT22;10189;49.546;7.906;2022-12-10T14:47:38;-2.00;86.30
20057;DHT22;10189;49.546;7.906;2022-12-10T14:50:11;-2.00;86.40
20057;DHT22;10189;49.546;7.906;2022-12-10T14:52:49;-2.10;86.90
20057;DHT22;10189;49.546;7.906;2022-12-10T14:55:19;-2.20;87.10
20057;DHT22;10189;49.546;7.906;2022-12-10T14:57:53;-2.30;87.70
20057;DHT22;10189;49.546;7.906;2022-12-10T15:00:23;-2.40;88.20
20057;DHT22;10189;49.546;7.906;2022-12-10T15:02:54;-2.40;88.60
20057;DHT22;10189;49.546;7.906;2022-12-10T15:05:25;-2.50;88.90
20057;DHT22;10189;49.546;7.906;2022-12-10T15:08:06;-2.60;89.50
20057;DHT22;10189;49.546;7.906;2022-12-10T15:10:41;-2.60;90.00
20057;DHT22;10189;49.546;7.906;2022-12-10T15:13:19;-2.70;90.40
20057;DHT22;10189;49.546;7.906;2022-12-10T15:15:49;-2.70;90.70
20057;DHT22;10189;49.546;7.906;2022-12-10T15:18:25;-2.80;90.60
20057;DHT22;10189;49.546;7.906;2022-12-10T15:21:10;-2.90;90.90
20057;DHT22;10189;49.546;7.906;2022-12-10T15:23:40;-3.00;91.40
20057;DHT22;10189;49.546;7.906;2022-12-10T15:28:46;-3.10;92.10
20057;DHT22;10189;49.546;7.906;2022-12-10T15:34:17;-3.30;92.60
20057;DHT22;10189;49.546;7.906;2022-12-10T15:36:50;-3.40;93.40
20057;DHT22;10189;49.546;7.906;2022-12-10T15:39:29;-3.50;93.90
20057;DHT22;10189;49.546;7.906;2022-12-10T15:42:00;-3.50;94.40
20057;DHT22;10189;49.546;7.906;2022-12-10T15:44:41;-3.60;94.80
20057;DHT22;10189;49.546;7.906;2022-12-10T15:47:25;-3.70;95.20
20057;DHT22;10189;49.546;7.906;2022-12-10T15:49:54;-3.70;95.60
20057;DHT22;10189;49.546;7.906;2022-12-10T15:52:30;-3.70;96.20
20057;DHT22;10189;49.546;7.906;2022-12-10T15:54:58;-3.70;96.70
20057;DHT22;10189;49.546;7.906;2022-12-10T15:57:30;-3.60;97.50
20057;DHT22;10189;49.546;7.906;2022-12-10T16:00:13;-3.60;97.20
20057;DHT22;10189;49.546;7.906;2022-12-10T16:05:33;-3.60;97.20
20057;DHT22;10189;49.546;7.906;2022-12-10T16:08:13;-3.60;97.10
20057;DHT22;10189;49.546;7.906;2022-12-10T16:10:48;-3.70;97.10
20057;DHT22;10189;49.546;7.906;2022-12-10T16:13:21;-3.80;97.20
20057;DHT22;10189;49.546;7.906;2022-12-10T16:16:19;-3.80;97.40
20057;DHT22;10189;49.546;7.906;2022-12-10T16:18:46;-3.90;97.60
20057;DHT22;10189;49.546;7.906;2022-12-10T16:21:12;-4.00;97.90
20057;DHT22;10189;49.546;7.906;2022-12-10T16:23:39;-4.00;98.30
20057;DHT22;10189;49.546;7.906;2022-12-10T16:26:25;-4.10;98.60
20057;DHT22;10189;49.546;7.906;2022-12-10T16:28:51;-4.10;98.90
20057;DHT22;10189;49.546;7.906;2022-12-10T16:31:21;-4.20;99.00
20057;DHT22;10189;49.546;7.906;2022-12-10T16:33:47;-4.20;99.20
20057;DHT22;10189;49.546;7.906;2022-12-10T16:36:17;-4.20;99.40
20057;DHT22;10189;49.546;7.906;2022-12-10T16:38:43;-4.30;99.70
20057;DHT22;10189;49.546;7.906;2022-12-10T16:41:15;-4.30;99.90
20057;DHT22;10189;49.546;7.906;2022-12-10T16:43:43;-4.30;99.90
20057;DHT22;10189;49.546;7.906;2022-12-10T16:46:10;-4.30;99.90
20057;DHT22;10189;49.546;7.906;2022-12-10T16:48:37;-4.40;99.90
20057;DHT22;10189;49.546;7.906;2022-12-10T16:51:12;-4.40;99.90
20057;DHT22;10189;49.546;7.906;2022-12-10T16:53:42;-4.50;99.90
20057;DHT22;10189;49.546;7.906;2022-12-10T16:56:12;-4.60;99.90
20057;DHT22;10189;49.546;7.906;2022-12-10T16:58:40;-4.60;99.90
20057;DHT22;10189;49.546;7.906;2022-12-10T17:01:33;-4.70;99.90
20057;DHT22;10189;49.546;7.906;2022-12-10T17:04:00;-4.70;99.90
20057;DHT22;10189;49.546;7.906;2022-12-10T17:06:28;-4.80;99.90
20057;DHT22;10189;49.546;7.906;2022-12-10T17:08:54;-4.80;99.90
20057;DHT22;10189;49.546;7.906;2022-12-10T17:11:29;-4.80;99.90
20057;DHT22;10189;49.546;7.906;2022-12-10T17:14:30;-4.90;99.90
20057;DHT22;10189;49.546;7.906;2022-12-10T17:17:00;-4.90;99.90
20057;DHT22;10189;49.546;7.906;2022-12-10T17:19:34;-5.00;99.90
20057;DHT22;10189;49.546;7.906;2022-12-10T17:22:03;-5.00;99.90
20057;DHT22;10189;49.546;7.906;2022-12-10T17:24:30;-5.00;99.90
20057;DHT22;10189;49.546;7.906;2022-12-10T17:27:12;-5.00;99.90
20057;DHT22;10189;49.546;7.906;2022-12-10T17:29:43;-5.00;99.90
20057;DHT22;10189;49.546;7.906;2022-12-10T17:32:18;-5.00;99.90
20057;DHT22;10189;49.546;7.906;2022-12-10T17:34:47;-5.10;99.90
20057;DHT22;10189;49.546;7.906;2022-12-10T17:37:16;-5.10;99.90
20057;DHT22;10189;49.546;7.906;2022-12-10T17:39:45;-5.20;99.90
20057;DHT22;10189;49.546;7.906;2022-12-10T17:42:12;-5.20;99.90